Time;durP1;ratioP1;P1;durP2;ratioP2;P2;SDS_P1;SDS_P2;PMS_P1;PMS_P2;Temp;Humidity;BMP_temperature;BMP_pressure;BME280_temperature;BME280_humidity;BME280_pressure;Samples;Min_cycle;Max_cycle;Signal;HPM_P1;HPM_P2
2022/02/08 00:01:08;;;;;;;;;;;6.50;99.90;;;;;;5130364;28;19932;-80
2022/02/08 00:03:34;;;;;;;;;;;6.50;99.90;;;;;;5139207;28;19914;-73
2022/02/08 00:06:12;;;;;;;;;;;6.40;99.90;;;;;;5139412;28;19907;-81
2022/02/08 00:08:39;;;;;;;;;;;6.40;99.90;;;;;;5139849;28;19939;-77
2022/02/08 00:11:06;;;;;;;;;;;6.40;99.90;;;;;;5139432;28;19951;-74
2022/02/08 00:13:32;;;;;;;;;;;6.30;99.90;;;;;;5139437;28;19943;-73
2022/02/08 00:15:59;;;;;;;;;;;6.40;99.90;;;;;;5138946;28;19959;-81
2022/02/08 00:18:27;;;;;;;;;;;6.40;99.90;;;;;;5139361;28;19974;-82
2022/02/08 00:20:54;;;;;;;;;;;6.40;99.90;;;;;;5123983;28;19975;-80
2022/02/08 00:23:20;;;;;;;;;;;6.40;99.90;;;;;;5143211;28;19983;-79
2022/02/08 00:25:47;;;;;;;;;;;6.40;99.90;;;;;;5138798;28;19935;-82
2022/02/08 00:28:14;;;;;;;;;;;6.40;99.90;;;;;;5189677;22;19908;-82
2022/02/08 00:30:41;;;;;;;;;;;6.50;99.90;;;;;;5120619;28;19924;-79
2022/02/08 00:33:07;;;;;;;;;;;6.60;99.90;;;;;;5113418;28;19930;-72
2022/02/08 00:35:35;;;;;;;;;;;6.60;99.90;;;;;;5114959;28;19972;-77
2022/02/08 00:38:02;;;;;;;;;;;6.60;99.90;;;;;;5122093;28;19916;-80
2022/02/08 00:40:29;;;;;;;;;;;6.60;99.90;;;;;;5122034;28;19946;-81
2022/02/08 00:42:56;;;;;;;;;;;6.70;99.90;;;;;;5121075;28;19915;-80
2022/02/08 00:45:32;;;;;;;;;;;6.80;99.90;;;;;;5122259;28;19932;-71
2022/02/08 00:48:09;;;;;;;;;;;6.80;99.90;;;;;;5118005;28;19908;-79
2022/02/08 00:50:39;;;;;;;;;;;6.80;99.90;;;;;;5102042;28;19909;-66
2022/02/08 00:53:05;;;;;;;;;;;6.90;99.90;;;;;;5116272;28;19908;-81
2022/02/08 00:55:32;;;;;;;;;;;6.90;99.90;;;;;;5121741;28;19967;-79
2022/02/08 00:57:59;;;;;;;;;;;6.90;99.90;;;;;;5121886;28;19908;-70
2022/02/08 01:00:26;;;;;;;;;;;6.90;99.90;;;;;;5122113;28;19908;-74
2022/02/08 01:02:54;;;;;;;;;;;6.90;99.90;;;;;;5122072;28;19915;-71
2022/02/08 01:05:21;;;;;;;;;;;7.00;99.90;;;;;;5121871;28;19920;-78
2022/02/08 01:07:49;;;;;;;;;;;7.00;99.90;;;;;;5121590;28;19924;-78
2022/02/08 01:10:18;;;;;;;;;;;7.10;99.90;;;;;;5121452;28;19967;-77
2022/02/08 01:12:47;;;;;;;;;;;7.10;99.90;;;;;;5121535;28;20005;-80
2022/02/08 01:15:15;;;;;;;;;;;7.10;99.90;;;;;;5120485;28;19942;-75
2022/02/08 01:17:43;;;;;;;;;;;7.20;99.90;;;;;;5118791;28;19938;-79
2022/02/08 01:20:11;;;;;;;;;;;7.20;99.90;;;;;;5120849;28;19908;-80
2022/02/08 01:22:40;;;;;;;;;;;7.20;99.90;;;;;;5120441;28;19924;-79
2022/02/08 01:25:13;;;;;;;;;;;7.20;99.90;;;;;;5120187;28;19935;-78
2022/02/08 01:27:46;;;;;;;;;;;7.20;99.90;;;;;;5120929;28;19954;-72
2022/02/08 01:30:17;;;;;;;;;;;7.20;99.90;;;;;;5100641;28;19908;-80
2022/02/08 01:33:10;;;;;;;;;;;7.10;99.90;;;;;;5100606;28;19936;-81
2022/02/08 01:35:52;;;;;;;;;;;7.20;99.90;;;;;;5103048;28;19924;-80
2022/02/08 01:38:22;;;;;;;;;;;7.20;99.90;;;;;;5119707;28;19976;-79
2022/02/08 01:41:07;;;;;;;;;;;7.20;99.90;;;;;;5119610;28;19914;-79
2022/02/08 01:46:30;;;;;;;;;;;7.20;99.90;;;;;;5120966;28;19930;-79
2022/02/08 01:49:10;;;;;;;;;;;7.20;99.90;;;;;;5120462;28;19915;-80
2022/02/08 01:51:37;;;;;;;;;;;7.20;99.90;;;;;;5119937;28;19924;-80
2022/02/08 01:54:03;;;;;;;;;;;7.30;99.90;;;;;;5120843;28;19972;-77
2022/02/08 01:56:31;;;;;;;;;;;7.20;99.90;;;;;;5112363;28;19943;-79
2022/02/08 01:59:00;;;;;;;;;;;7.20;99.90;;;;;;5100364;28;19972;-74
2022/02/08 02:01:27;;;;;;;;;;;7.20;99.90;;;;;;5100498;28;19936;-76
2022/02/08 02:03:54;;;;;;;;;;;7.20;99.90;;;;;;5100367;28;19908;-71
2022/02/08 02:06:20;;;;;;;;;;;7.20;99.90;;;;;;5100460;28;19984;-79
2022/02/08 02:08:47;;;;;;;;;;;7.20;99.90;;;;;;5099916;28;19908;-81
2022/02/08 02:11:14;;;;;;;;;;;7.30;99.90;;;;;;5099456;28;19916;-74
2022/02/08 02:13:44;;;;;;;;;;;7.30;99.90;;;;;;5105165;28;19924;-81
2022/02/08 02:16:14;;;;;;;;;;;7.40;99.90;;;;;;5119804;28;19908;-75
2022/02/08 02:18:41;;;;;;;;;;;7.40;99.90;;;;;;5120549;28;19915;-71
2022/02/08 02:21:08;;;;;;;;;;;7.50;99.90;;;;;;5120651;28;19943;-74
2022/02/08 02:23:34;;;;;;;;;;;7.50;99.90;;;;;;5120251;28;19943;-66
2022/02/08 02:26:03;;;;;;;;;;;7.50;99.90;;;;;;5120610;28;19915;-72
2022/02/08 02:31:05;;;;;;;;;;;7.50;99.90;;;;;;5472814;22;19928;-80
2022/02/08 02:33:32;;;;;;;;;;;7.40;99.90;;;;;;5098559;28;19908;-81
2022/02/08 02:35:58;;;;;;;;;;;7.40;99.90;;;;;;5098528;28;19959;-81
2022/02/08 02:38:25;;;;;;;;;;;7.40;99.90;;;;;;5099114;28;19924;-81
2022/02/08 02:40:52;;;;;;;;;;;7.40;99.90;;;;;;5098464;28;19931;-80
2022/02/08 02:43:20;;;;;;;;;;;7.40;99.90;;;;;;5097340;28;19924;-80
2022/02/08 02:45:47;;;;;;;;;;;7.40;99.90;;;;;;5097903;28;19959;-81
2022/02/08 02:48:15;;;;;;;;;;;7.40;99.90;;;;;;5098648;28;19940;-82
2022/02/08 02:50:42;;;;;;;;;;;7.50;99.90;;;;;;5106331;28;20377;-78
2022/02/08 02:53:08;;;;;;;;;;;7.50;99.90;;;;;;5078675;28;19915;-82
2022/02/08 02:55:37;;;;;;;;;;;7.50;99.90;;;;;;5096916;28;19939;-81
2022/02/08 02:58:06;;;;;;;;;;;7.50;99.90;;;;;;5098715;28;19976;-82
2022/02/08 03:00:38;;;;;;;;;;;7.50;99.90;;;;;;5108290;28;19908;-82
2022/02/08 03:03:16;;;;;;;;;;;7.50;99.90;;;;;;5113850;28;19908;-81
2022/02/08 03:19:28;;;;;;;;;;;7.40;99.90;;;;;;5092215;28;19919;-81
2022/02/08 03:21:55;;;;;;;;;;;7.50;99.90;;;;;;5078693;28;19916;-78
2022/02/08 03:24:21;;;;;;;;;;;7.50;99.90;;;;;;5097124;28;19924;-82
2022/02/08 03:26:48;;;;;;;;;;;7.60;99.90;;;;;;5098977;28;19948;-72
2022/02/08 03:29:15;;;;;;;;;;;7.60;99.90;;;;;;5266328;22;19976;-72
2022/02/08 03:31:41;;;;;;;;;;;7.60;99.90;;;;;;5099025;28;19915;-78
2022/02/08 03:34:10;;;;;;;;;;;7.60;99.90;;;;;;5098861;28;19948;-79
2022/02/08 03:36:37;;;;;;;;;;;7.60;99.90;;;;;;5097388;28;19909;-79
2022/02/08 03:39:13;;;;;;;;;;;7.60;99.90;;;;;;5088891;28;19999;-79
2022/02/08 03:41:45;;;;;;;;;;;7.60;99.90;;;;;;5075643;28;19931;-79
2022/02/08 03:44:17;;;;;;;;;;;7.60;99.90;;;;;;5073298;28;19932;-78
2022/02/08 03:46:43;;;;;;;;;;;7.60;99.90;;;;;;5061235;28;19925;-79
2022/02/08 03:49:12;;;;;;;;;;;7.60;99.90;;;;;;5083233;28;19976;-79
2022/02/08 03:51:48;;;;;;;;;;;7.60;99.90;;;;;;5071330;28;19953;-78
2022/02/08 03:54:15;;;;;;;;;;;7.60;99.90;;;;;;5072535;28;19908;-79
2022/02/08 03:56:42;;;;;;;;;;;7.60;99.90;;;;;;5076342;28;20000;-79
2022/02/08 03:59:08;;;;;;;;;;;7.60;99.90;;;;;;5075590;28;19968;-78
2022/02/08 04:04:34;;;;;;;;;;;7.60;99.90;;;;;;5056725;28;19956;-80
2022/02/08 04:07:08;;;;;;;;;;;7.60;99.90;;;;;;5060348;28;19916;-81
2022/02/08 04:09:34;;;;;;;;;;;7.60;99.90;;;;;;5063703;28;19975;-80
2022/02/08 04:12:05;;;;;;;;;;;7.60;99.90;;;;;;5061412;28;19940;-78
2022/02/08 04:14:40;;;;;;;;;;;7.70;99.90;;;;;;5075052;28;19909;-74
2022/02/08 04:17:18;;;;;;;;;;;7.70;99.90;;;;;;5082426;28;19927;-69
2022/02/08 04:20:14;;;;;;;;;;;7.70;99.90;;;;;;5102607;28;19908;-66
2022/02/08 04:36:46;;;;;;;;;;;7.70;99.90;;;;;;5054368;28;19905;-79
2022/02/08 04:39:33;;;;;;;;;;;7.80;99.90;;;;;;5060914;28;19948;-79
2022/02/08 04:42:05;;;;;;;;;;;7.80;99.90;;;;;;5061198;28;19909;-70
2022/02/08 04:44:40;;;;;;;;;;;7.80;99.90;;;;;;5061385;28;19913;-78
2022/02/08 04:47:14;;;;;;;;;;;7.80;99.90;;;;;;5061805;28;19921;-68
2022/02/08 04:49:41;;;;;;;;;;;7.80;99.90;;;;;;5061911;28;19909;-66
2022/02/08 04:52:12;;;;;;;;;;;7.80;99.90;;;;;;5061709;28;19916;-69
2022/02/08 04:54:47;;;;;;;;;;;7.80;99.90;;;;;;5061367;28;19916;-78
2022/02/08 04:57:19;;;;;;;;;;;7.80;99.90;;;;;;5061149;28;19925;-72
2022/02/08 05:35:40;;;;;;;;;;;8.30;99.90;;;;;;5112387;28;19994;-80
2022/02/08 05:43:48;;;;;;;;;;;8.40;99.90;;;;;;5120181;28;20000;-79
2022/02/08 05:49:05;;;;;;;;;;;8.50;99.90;;;;;;5102200;28;19980;-73
2022/02/08 05:51:56;;;;;;;;;;;8.50;99.90;;;;;;5100919;28;19950;-77
2022/02/08 05:54:22;;;;;;;;;;;8.50;99.90;;;;;;5095824;28;19969;-78
2022/02/08 05:56:53;;;;;;;;;;;8.50;99.90;;;;;;5087934;28;19967;-78
2022/02/08 05:59:19;;;;;;;;;;;8.50;99.90;;;;;;5094779;28;20349;-78
2022/02/08 06:01:46;;;;;;;;;;;8.50;99.90;;;;;;5095104;28;19928;-78
2022/02/08 06:04:13;;;;;;;;;;;8.50;99.90;;;;;;5094524;28;20015;-78
2022/02/08 06:06:40;;;;;;;;;;;8.50;99.90;;;;;;5098043;28;19931;-79
2022/02/08 06:09:06;;;;;;;;;;;8.50;99.90;;;;;;5091966;28;19935;-78
2022/02/08 06:11:36;;;;;;;;;;;8.50;99.90;;;;;;5087126;28;20019;-78
2022/02/08 06:14:04;;;;;;;;;;;8.50;99.90;;;;;;5084445;28;19924;-77
2022/02/08 06:16:31;;;;;;;;;;;8.50;99.90;;;;;;5087779;28;19935;-78
2022/02/08 06:18:58;;;;;;;;;;;8.50;99.90;;;;;;5061702;28;19929;-78
2022/02/08 06:21:25;;;;;;;;;;;8.50;99.90;;;;;;5069233;28;19930;-78
2022/02/08 06:23:51;;;;;;;;;;;8.50;99.90;;;;;;5077942;28;19924;-77
2022/02/08 06:26:20;;;;;;;;;;;8.40;99.90;;;;;;5077031;28;19972;-77
2022/02/08 06:28:56;;;;;;;;;;;8.40;99.90;;;;;;5076558;28;19931;-77
2022/02/08 06:31:24;;;;;;;;;;;8.40;99.90;;;;;;5077825;28;19978;-78
2022/02/08 06:33:51;;;;;;;;;;;8.40;99.90;;;;;;5074126;28;19991;-76
2022/02/08 06:36:17;;;;;;;;;;;8.40;99.90;;;;;;5067246;28;20031;-76
2022/02/08 06:38:47;;;;;;;;;;;8.40;99.90;;;;;;5072868;28;19934;-77
2022/02/08 06:41:13;;;;;;;;;;;8.40;99.90;;;;;;5070083;28;19952;-77
2022/02/08 06:43:40;;;;;;;;;;;8.40;99.90;;;;;;5070539;28;20012;-77
2022/02/08 06:46:07;;;;;;;;;;;8.40;99.90;;;;;;5071423;28;20026;-76
2022/02/08 06:48:35;;;;;;;;;;;8.40;99.90;;;;;;5071422;28;19978;-77
2022/02/08 06:51:01;;;;;;;;;;;8.40;99.90;;;;;;5070012;28;20023;-78
2022/02/08 06:53:28;;;;;;;;;;;8.40;99.90;;;;;;5078916;28;20003;-78
2022/02/08 06:56:02;;;;;;;;;;;8.40;99.90;;;;;;5075699;28;20201;-77
2022/02/08 06:58:36;;;;;;;;;;;8.50;99.90;;;;;;5073393;28;19925;-75
2022/02/08 07:01:04;;;;;;;;;;;8.50;99.90;;;;;;5070033;28;19925;-76
2022/02/08 07:03:31;;;;;;;;;;;8.50;99.90;;;;;;5067400;28;19928;-77
2022/02/08 07:06:02;;;;;;;;;;;8.50;99.90;;;;;;5071548;28;19929;-76
2022/02/08 07:08:28;;;;;;;;;;;8.50;99.90;;;;;;5067728;28;19931;-77
2022/02/08 07:10:55;;;;;;;;;;;8.50;99.90;;;;;;5069416;28;20405;-76
2022/02/08 07:13:22;;;;;;;;;;;8.50;99.90;;;;;;5072481;28;19950;-75
2022/02/08 07:15:52;;;;;;;;;;;8.40;99.90;;;;;;5070467;28;19924;-76
2022/02/08 07:18:19;;;;;;;;;;;8.40;99.90;;;;;;5068832;28;19978;-77
2022/02/08 07:20:45;;;;;;;;;;;8.40;99.90;;;;;;5070716;28;20107;-80
2022/02/08 07:23:13;;;;;;;;;;;8.40;99.90;;;;;;5071742;28;19928;-77
2022/02/08 07:25:40;;;;;;;;;;;8.40;99.90;;;;;;5083892;28;19947;-81
2022/02/08 07:28:07;;;;;;;;;;;8.40;99.90;;;;;;5084475;28;19971;-77
2022/02/08 07:30:35;;;;;;;;;;;8.40;99.90;;;;;;5075036;28;19931;-76
2022/02/08 07:33:01;;;;;;;;;;;8.50;99.90;;;;;;5076437;28;20046;-76
2022/02/08 07:35:33;;;;;;;;;;;8.50;99.90;;;;;;5071029;28;19929;-76
2022/02/08 07:38:05;;;;;;;;;;;8.50;99.90;;;;;;5068869;28;19925;-76
2022/02/08 07:43:26;;;;;;;;;;;8.50;99.90;;;;;;5074289;28;19928;-76
2022/02/08 07:45:52;;;;;;;;;;;8.50;99.90;;;;;;5070578;28;20365;-76
2022/02/08 07:48:19;;;;;;;;;;;8.60;99.90;;;;;;5077639;28;19964;-78
2022/02/08 07:50:50;;;;;;;;;;;8.60;99.90;;;;;;5077486;28;19960;-78
2022/02/08 07:53:16;;;;;;;;;;;8.60;99.90;;;;;;5075965;28;20333;-77
2022/02/08 07:55:44;;;;;;;;;;;8.70;99.90;;;;;;5077186;28;19932;-77
2022/02/08 07:58:11;;;;;;;;;;;8.70;99.90;;;;;;5073561;28;20020;-75
2022/02/08 08:00:39;;;;;;;;;;;8.70;99.90;;;;;;5075320;28;19978;-76
2022/02/08 08:03:06;;;;;;;;;;;8.70;99.90;;;;;;5073371;28;19987;-75
2022/02/08 08:05:33;;;;;;;;;;;8.80;99.90;;;;;;5075561;28;20003;-75
2022/02/08 08:08:00;;;;;;;;;;;8.80;99.90;;;;;;5075247;28;19924;-75
2022/02/08 08:10:30;;;;;;;;;;;8.90;99.90;;;;;;5074483;28;19928;-75
2022/02/08 08:13:00;;;;;;;;;;;8.90;99.90;;;;;;5074982;28;19971;-75
2022/02/08 08:15:37;;;;;;;;;;;8.90;99.90;;;;;;5073199;28;19928;-75
2022/02/08 08:18:15;;;;;;;;;;;8.90;99.90;;;;;;5074505;28;19975;-75
2022/02/08 08:20:42;;;;;;;;;;;9.00;99.90;;;;;;5073091;28;20307;-75
2022/02/08 08:23:09;;;;;;;;;;;9.00;99.90;;;;;;5073336;28;19924;-75
2022/02/08 08:25:36;;;;;;;;;;;9.00;99.90;;;;;;5072995;28;19924;-76
2022/02/08 08:28:04;;;;;;;;;;;9.00;99.90;;;;;;5075155;28;19924;-76
2022/02/08 08:30:31;;;;;;;;;;;9.10;99.90;;;;;;5071602;28;19977;-75
2022/02/08 08:32:57;;;;;;;;;;;9.10;99.90;;;;;;5075743;28;19931;-77
2022/02/08 08:35:24;;;;;;;;;;;9.10;99.90;;;;;;5074708;28;19924;-74
2022/02/08 08:37:54;;;;;;;;;;;9.10;99.90;;;;;;5071625;28;20450;-75
2022/02/08 08:40:26;;;;;;;;;;;9.20;99.90;;;;;;5071746;28;20024;-75
2022/02/08 08:43:05;;;;;;;;;;;9.20;99.90;;;;;;5073955;28;19971;-76
2022/02/08 08:48:48;;;;;;;;;;;9.30;99.90;;;;;;5074802;28;19932;-75
2022/02/08 08:51:30;;;;;;;;;;;9.40;99.90;;;;;;5072542;28;20015;-76
2022/02/08 08:53:58;;;;;;;;;;;9.40;99.90;;;;;;5069278;28;20027;-75
2022/02/08 08:56:24;;;;;;;;;;;9.50;99.90;;;;;;5073248;28;19931;-75
2022/02/08 08:58:51;;;;;;;;;;;9.50;99.90;;;;;;5072692;28;20019;-76
2022/02/08 09:01:19;;;;;;;;;;;9.50;99.90;;;;;;5072443;28;20007;-75
2022/02/08 09:03:48;;;;;;;;;;;9.50;99.90;;;;;;5072733;28;19967;-75
2022/02/08 09:06:14;;;;;;;;;;;9.50;99.90;;;;;;5072419;28;20352;-76
2022/02/08 09:08:43;;;;;;;;;;;9.50;99.90;;;;;;5073037;28;19933;-76
2022/02/08 09:11:15;;;;;;;;;;;9.50;99.90;;;;;;5070486;28;20349;-74
2022/02/08 09:13:48;;;;;;;;;;;9.50;99.90;;;;;;5070907;28;19931;-75
2022/02/08 09:16:25;;;;;;;;;;;9.50;99.90;;;;;;5070934;28;19932;-75
2022/02/08 09:27:43;;;;;;;;;;;9.70;99.90;;;;;;5062671;28;19951;-76
2022/02/08 09:30:11;;;;;;;;;;;9.70;99.90;;;;;;5071240;28;19925;-75
2022/02/08 09:32:44;;;;;;;;;;;9.70;99.90;;;;;;5073669;28;19925;-76
2022/02/08 09:35:14;;;;;;;;;;;9.80;99.90;;;;;;5071119;28;19960;-76
2022/02/08 09:37:41;;;;;;;;;;;9.80;99.90;;;;;;5071078;28;19924;-75
2022/02/08 09:40:09;;;;;;;;;;;9.80;99.90;;;;;;5071518;28;19924;-75
2022/02/08 09:42:38;;;;;;;;;;;9.90;99.90;;;;;;5075384;28;19925;-76
2022/02/08 09:45:07;;;;;;;;;;;9.90;99.90;;;;;;5073219;28;19928;-76
2022/02/08 09:47:40;;;;;;;;;;;9.90;99.90;;;;;;5073666;28;19925;-76
2022/02/08 09:50:14;;;;;;;;;;;10.00;99.90;;;;;;5073181;28;19932;-76
2022/02/08 09:52:46;;;;;;;;;;;10.00;99.90;;;;;;5069657;28;19928;-76
2022/02/08 09:55:13;;;;;;;;;;;10.00;99.90;;;;;;5071204;28;19924;-76
2022/02/08 09:57:40;;;;;;;;;;;10.00;99.90;;;;;;5072079;28;19936;-77
2022/02/08 10:00:08;;;;;;;;;;;10.00;99.90;;;;;;5071525;28;19924;-77
2022/02/08 10:02:36;;;;;;;;;;;10.00;99.90;;;;;;5071378;28;20375;-77
2022/02/08 10:05:03;;;;;;;;;;;10.10;99.90;;;;;;5072503;28;20160;-75
2022/02/08 10:07:34;;;;;;;;;;;10.00;99.90;;;;;;5070465;28;20059;-77
2022/02/08 10:10:02;;;;;;;;;;;10.00;99.90;;;;;;5072060;28;19955;-76
2022/02/08 10:12:47;;;;;;;;;;;10.00;99.90;;;;;;5072954;28;20015;-76
2022/02/08 10:23:37;;;;;;;;;;;10.10;99.90;;;;;;5070082;28;19925;-76
2022/02/08 10:26:10;;;;;;;;;;;10.10;99.90;;;;;;5069171;28;19933;-75
2022/02/08 10:28:53;;;;;;;;;;;10.20;99.90;;;;;;5069061;28;19929;-75
2022/02/08 10:31:29;;;;;;;;;;;10.20;99.90;;;;;;5062253;28;20015;-75
2022/02/08 10:39:27;;;;;;;;;;;10.50;99.90;;;;;;5055151;28;19925;-76
2022/02/08 10:41:55;;;;;;;;;;;10.50;99.90;;;;;;5073817;28;20379;-76
2022/02/08 10:44:22;;;;;;;;;;;10.60;99.90;;;;;;5067173;28;19933;-75
2022/02/08 10:46:58;;;;;;;;;;;10.60;99.90;;;;;;5069250;28;19961;-75
2022/02/08 10:49:25;;;;;;;;;;;10.70;99.90;;;;;;5071072;28;19931;-76
2022/02/08 10:51:55;;;;;;;;;;;10.70;99.90;;;;;;5069229;28;19924;-76
2022/02/08 10:54:31;;;;;;;;;;;10.90;99.90;;;;;;5071318;28;19924;-76
2022/02/08 10:57:04;;;;;;;;;;;10.90;99.90;;;;;;5071122;28;19947;-75
2022/02/08 10:59:35;;;;;;;;;;;11.00;99.90;;;;;;5070119;28;20311;-75
2022/02/08 11:02:07;;;;;;;;;;;11.00;99.90;;;;;;5068457;28;20003;-75
2022/02/08 11:04:46;;;;;;;;;;;10.90;99.90;;;;;;5074855;28;19940;-76
2022/02/08 11:07:21;;;;;;;;;;;11.10;99.90;;;;;;5069775;28;20011;-75
2022/02/08 11:09:58;;;;;;;;;;;11.20;99.90;;;;;;5068856;28;19925;-76
2022/02/08 11:12:39;;;;;;;;;;;11.30;99.90;;;;;;5058142;28;20365;-76
2022/02/08 11:15:24;;;;;;;;;;;11.30;99.90;;;;;;5061851;28;20082;-76
2022/02/08 11:18:12;;;;;;;;;;;11.30;99.90;;;;;;5069759;28;19993;-76
2022/02/08 11:20:43;;;;;;;;;;;11.30;99.90;;;;;;5077043;28;20016;-75
2022/02/08 11:23:15;;;;;;;;;;;11.20;99.90;;;;;;5074272;28;19955;-76
2022/02/08 11:25:45;;;;;;;;;;;11.20;99.90;;;;;;5070905;28;20509;-76
2022/02/08 11:28:20;;;;;;;;;;;11.20;99.90;;;;;;5073744;28;19924;-77
2022/02/08 11:30:57;;;;;;;;;;;11.20;99.90;;;;;;5069570;28;19932;-76
2022/02/08 11:33:39;;;;;;;;;;;11.30;99.90;;;;;;5072206;28;19928;-76
2022/02/08 11:44:54;;;;;;;;;;;11.10;99.90;;;;;;5070128;28;19932;-77
2022/02/08 11:47:32;;;;;;;;;;;11.00;99.90;;;;;;5070799;28;19931;-77
2022/02/08 11:52:57;;;;;;;;;;;11.10;99.90;;;;;;5054491;28;19924;-78
2022/02/08 11:55:42;;;;;;;;;;;11.20;99.90;;;;;;5071636;28;19978;-75
2022/02/08 11:58:19;;;;;;;;;;;11.20;99.90;;;;;;5069219;28;20379;-75
2022/02/08 12:01:00;;;;;;;;;;;11.20;99.90;;;;;;5072172;28;19924;-77
2022/02/08 12:09:31;;;;;;;;;;;11.10;99.90;;;;;;5103986;27;19920;-79
2022/02/08 12:12:24;;;;;;;;;;;11.10;99.90;;;;;;5068708;28;19925;-78
2022/02/08 12:31:42;;;;;;;;;;;11.60;99.90;;;;;;5061933;28;19932;-76
2022/02/08 12:34:39;;;;;;;;;;;11.60;99.90;;;;;;5052365;28;20170;-77
2022/02/08 12:54:01;;;;;;;;;;;11.90;99.90;;;;;;5056412;28;19925;-78
2022/02/08 12:56:37;;;;;;;;;;;11.90;99.90;;;;;;5060915;28;19925;-77
2022/02/08 12:59:24;;;;;;;;;;;11.90;99.90;;;;;;5081634;28;20121;-78
2022/02/08 13:04:48;;;;;;;;;;;11.90;99.90;;;;;;5069702;28;20648;-78
2022/02/08 14:02:37;;;;;;;;;;;12.20;99.20;;;;;;5081728;28;19990;-78
2022/02/08 14:08:01;;;;;;;;;;;11.80;99.90;;;;;;5089188;28;19930;-79
2022/02/08 14:10:45;;;;;;;;;;;11.70;99.90;;;;;;5080939;28;19948;-81
2022/02/08 14:13:41;;;;;;;;;;;11.80;99.90;;;;;;5077714;28;19943;-82
2022/02/08 14:16:17;;;;;;;;;;;11.90;99.90;;;;;;5096389;28;19970;-79
2022/02/08 14:19:02;;;;;;;;;;;11.90;99.90;;;;;;5089696;28;19986;-80
2022/02/08 14:21:51;;;;;;;;;;;11.90;99.90;;;;;;5082403;28;19932;-78
2022/02/08 14:24:30;;;;;;;;;;;11.90;99.90;;;;;;5090390;28;19989;-77
2022/02/08 14:29:48;;;;;;;;;;;11.70;99.90;;;;;;5054693;28;20051;-76
2022/02/08 14:32:23;;;;;;;;;;;11.50;99.90;;;;;;5077435;28;20038;-76
2022/02/08 15:10:41;;;;;;;;;;;10.30;99.90;;;;;;5058114;28;19924;-76
2022/02/08 15:13:09;;;;;;;;;;;10.30;99.90;;;;;;5054587;28;19925;-76
2022/02/08 15:15:46;;;;;;;;;;;10.30;99.90;;;;;;5059496;28;19925;-76
2022/02/08 15:18:13;;;;;;;;;;;10.30;99.90;;;;;;5060035;28;19932;-77
2022/02/08 15:20:40;;;;;;;;;;;10.20;99.90;;;;;;5062184;28;19924;-76
2022/02/08 15:23:10;;;;;;;;;;;10.20;99.90;;;;;;5057067;28;19960;-76
2022/02/08 15:25:38;;;;;;;;;;;10.20;99.90;;;;;;5064064;28;19925;-77
2022/02/08 15:28:05;;;;;;;;;;;10.20;99.90;;;;;;5062762;28;19930;-76
2022/02/08 15:30:35;;;;;;;;;;;10.20;99.90;;;;;;5053597;28;20023;-76
2022/02/08 15:33:03;;;;;;;;;;;10.20;99.90;;;;;;5068507;28;19932;-76
2022/02/08 15:35:30;;;;;;;;;;;10.20;99.90;;;;;;5058049;28;19935;-76
2022/02/08 15:37:56;;;;;;;;;;;10.20;99.90;;;;;;5063361;28;19925;-77
2022/02/08 15:40:24;;;;;;;;;;;10.20;99.90;;;;;;5057139;28;20505;-76
2022/02/08 15:42:52;;;;;;;;;;;10.30;99.90;;;;;;5058282;28;20391;-77
2022/02/08 15:45:23;;;;;;;;;;;10.30;99.90;;;;;;5061779;28;20024;-77
2022/02/08 15:47:51;;;;;;;;;;;10.30;99.90;;;;;;5066108;28;19982;-76
2022/02/08 15:50:29;;;;;;;;;;;10.20;99.90;;;;;;5055939;28;19967;-78
2022/02/08 15:53:11;;;;;;;;;;;10.20;99.90;;;;;;5057300;28;19932;-75
2022/02/08 15:55:46;;;;;;;;;;;10.20;99.90;;;;;;5060520;28;19924;-75
2022/02/08 15:58:25;;;;;;;;;;;10.20;99.90;;;;;;5056837;28;19960;-76
2022/02/08 16:01:05;;;;;;;;;;;10.10;99.90;;;;;;5067872;28;20097;-76
2022/02/08 16:06:54;;;;;;;;;;;10.10;99.90;;;;;;5060813;28;20006;-78
2022/02/08 16:09:28;;;;;;;;;;;10.10;99.90;;;;;;5063019;28;19931;-77
2022/02/08 16:12:24;;;;;;;;;;;10.10;99.90;;;;;;5062954;28;20357;-77
2022/02/08 16:15:13;;;;;;;;;;;10.10;99.90;;;;;;5060461;28;19936;-76
2022/02/08 16:17:52;;;;;;;;;;;10.00;99.90;;;;;;5058333;28;20457;-76
2022/02/08 16:20:31;;;;;;;;;;;10.00;99.90;;;;;;5061694;28;19925;-77
2022/02/08 16:26:05;;;;;;;;;;;9.90;99.90;;;;;;5017563;28;19933;-76
2022/02/08 16:28:53;;;;;;;;;;;9.90;99.90;;;;;;5047259;28;23326;-77
2022/02/08 16:53:22;;;;;;;;;;;9.70;99.90;;;;;;5058220;28;19993;-76
2022/02/08 16:56:01;;;;;;;;;;;9.70;99.90;;;;;;5062127;28;20268;-77
2022/02/08 16:58:38;;;;;;;;;;;9.80;99.90;;;;;;5063912;28;19928;-76
2022/02/08 17:01:12;;;;;;;;;;;9.80;99.90;;;;;;5066661;28;19959;-78
2022/02/08 17:03:44;;;;;;;;;;;9.80;99.90;;;;;;5065105;28;20391;-76
2022/02/08 17:06:11;;;;;;;;;;;9.80;99.90;;;;;;5069315;28;19958;-76
2022/02/08 17:08:38;;;;;;;;;;;9.80;99.90;;;;;;5068231;28;19932;-77
2022/02/08 17:11:05;;;;;;;;;;;9.80;99.90;;;;;;5058240;28;20378;-76
2022/02/08 17:13:51;;;;;;;;;;;9.80;99.90;;;;;;5070549;28;19932;-78
2022/02/08 17:16:34;;;;;;;;;;;9.80;99.90;;;;;;5070428;28;19932;-76
2022/02/08 17:19:44;;;;;;;;;;;9.80;99.90;;;;;;5067041;28;19979;-78
2022/02/08 17:47:03;;;;;;;;;;;9.90;99.90;;;;;;5055625;28;19935;-77
2022/02/08 17:49:33;;;;;;;;;;;9.90;99.90;;;;;;5066814;28;20009;-78
2022/02/08 17:52:01;;;;;;;;;;;9.90;99.90;;;;;;5068314;28;20022;-77
2022/02/08 17:54:28;;;;;;;;;;;9.80;99.90;;;;;;5069612;28;19931;-77
2022/02/08 17:56:57;;;;;;;;;;;9.80;99.90;;;;;;5076196;28;20015;-76
2022/02/08 17:59:24;;;;;;;;;;;9.80;99.90;;;;;;5068748;28;19929;-77
2022/02/08 18:01:51;;;;;;;;;;;9.70;99.90;;;;;;5066071;28;19924;-77
2022/02/08 18:04:17;;;;;;;;;;;9.70;99.90;;;;;;5073202;28;19931;-78
2022/02/08 18:06:44;;;;;;;;;;;9.70;99.90;;;;;;5064088;28;20438;-76
2022/02/08 18:09:14;;;;;;;;;;;9.70;99.90;;;;;;5073302;28;20291;-78
2022/02/08 18:11:42;;;;;;;;;;;9.70;99.90;;;;;;5071660;28;19924;-77
2022/02/08 18:14:12;;;;;;;;;;;9.70;99.90;;;;;;5065370;28;19951;-75
2022/02/08 18:16:39;;;;;;;;;;;9.70;99.90;;;;;;5072375;28;20042;-77
2022/02/08 18:19:12;;;;;;;;;;;9.70;99.90;;;;;;5071661;28;20015;-77
2022/02/08 18:21:46;;;;;;;;;;;9.70;99.90;;;;;;5077120;28;20263;-77
2022/02/08 18:57:50;;;;;;;;;;;9.70;99.90;;;;;;5065191;28;19931;-76
2022/02/08 19:11:44;;;;;;;;;;;9.60;99.90;;;;;;5055749;28;19924;-76
2022/02/08 19:14:51;;;;;;;;;;;9.60;99.90;;;;;;5055543;28;19929;-77
2022/02/08 19:20:04;;;;;;;;;;;9.60;99.90;;;;;;5065862;28;20019;-78
2022/02/08 19:22:31;;;;;;;;;;;9.60;99.90;;;;;;5061016;28;19924;-77
2022/02/08 19:24:58;;;;;;;;;;;9.60;99.90;;;;;;5066262;28;19993;-75
2022/02/08 19:27:24;;;;;;;;;;;9.60;99.90;;;;;;5061890;28;20020;-76
2022/02/08 19:29:52;;;;;;;;;;;9.60;99.90;;;;;;5063257;28;19925;-76
2022/02/08 19:32:19;;;;;;;;;;;9.60;99.90;;;;;;5068763;28;19929;-77
2022/02/08 19:34:47;;;;;;;;;;;9.60;99.90;;;;;;5067659;28;19925;-76
2022/02/08 19:37:16;;;;;;;;;;;9.60;99.90;;;;;;5065771;28;20015;-77
2022/02/08 19:39:46;;;;;;;;;;;9.60;99.90;;;;;;5062053;28;19976;-77
2022/02/08 19:42:13;;;;;;;;;;;9.60;99.90;;;;;;5072195;28;20371;-76
2022/02/08 19:44:40;;;;;;;;;;;9.60;99.90;;;;;;5069104;28;19950;-76
2022/02/08 19:47:11;;;;;;;;;;;9.60;99.90;;;;;;5055799;28;20372;-77
2022/02/08 19:49:38;;;;;;;;;;;9.50;99.90;;;;;;5062855;28;19978;-77
2022/02/08 19:52:07;;;;;;;;;;;9.50;99.90;;;;;;5066063;28;19924;-76
2022/02/08 19:54:39;;;;;;;;;;;9.50;99.90;;;;;;5060170;28;19987;-76
2022/02/08 19:57:13;;;;;;;;;;;9.50;99.90;;;;;;5053800;28;19933;-76
2022/02/08 19:59:43;;;;;;;;;;;9.50;99.90;;;;;;5065481;28;20455;-78
2022/02/08 20:02:14;;;;;;;;;;;9.60;99.90;;;;;;5072804;28;20011;-76
2022/02/08 20:04:45;;;;;;;;;;;9.50;99.90;;;;;;5066313;28;20376;-77
2022/02/08 20:07:13;;;;;;;;;;;9.50;99.90;;;;;;5069046;28;19960;-76
2022/02/08 20:09:39;;;;;;;;;;;9.40;99.90;;;;;;5066609;28;19924;-76
2022/02/08 20:12:06;;;;;;;;;;;9.40;99.90;;;;;;5069379;28;19990;-76
2022/02/08 20:14:33;;;;;;;;;;;9.40;99.90;;;;;;5067150;28;19971;-76
2022/02/08 20:17:00;;;;;;;;;;;9.30;99.90;;;;;;5073726;28;19924;-76
2022/02/08 20:19:29;;;;;;;;;;;9.30;99.90;;;;;;5071487;28;19924;-76
2022/02/08 20:22:02;;;;;;;;;;;9.30;99.90;;;;;;5071572;28;19932;-76
2022/02/08 20:24:29;;;;;;;;;;;9.30;99.90;;;;;;5068398;28;20038;-77
2022/02/08 20:29:53;;;;;;;;;;;9.30;99.90;;;;;;5027985;28;20062;-76
2022/02/08 20:32:23;;;;;;;;;;;9.30;99.90;;;;;;5063949;28;19924;-75
2022/02/08 20:34:51;;;;;;;;;;;9.30;99.90;;;;;;5060434;28;19928;-76
2022/02/08 20:37:22;;;;;;;;;;;9.40;99.90;;;;;;5056944;28;20284;-77
2022/02/08 20:39:48;;;;;;;;;;;9.40;99.90;;;;;;5071493;28;20608;-76
2022/02/08 20:42:17;;;;;;;;;;;9.40;99.90;;;;;;5070491;28;19924;-76
2022/02/08 20:44:44;;;;;;;;;;;9.40;99.90;;;;;;5068195;28;19979;-76
2022/02/08 20:47:20;;;;;;;;;;;9.40;99.90;;;;;;5066906;28;19933;-76
2022/02/08 20:49:50;;;;;;;;;;;9.40;99.90;;;;;;5067867;28;19928;-76
2022/02/08 20:52:19;;;;;;;;;;;9.50;99.90;;;;;;5066593;28;19932;-79